TimeEDT,TemperatureF,Dew PointF,Humidity,Sea Level PressureIn,VisibilityMPH,Wind Direction,Wind SpeedMPH,Gust SpeedMPH,PrecipitationIn,Events,Conditions,WindDirDegrees,DateUTC
12:53 AM,50.0,43.0,77,30.12,10.0,Calm,Calm,-,N/A,,Clear,0,2013-06-04 04:53:00
1:53 AM,46.9,43.0,86,30.13,10.0,Calm,Calm,-,N/A,,Clear,0,2013-06-04 05:53:00
2:53 AM,46.9,43.0,86,30.14,10.0,Calm,Calm,-,N/A,,Clear,0,2013-06-04 06:53:00
3:53 AM,46.9,43.0,86,30.14,10.0,Calm,Calm,-,N/A,,Clear,0,2013-06-04 07:53:00
4:53 AM,46.0,43.0,89,30.15,10.0,Calm,Calm,-,N/A,,Clear,0,2013-06-04 08:53:00
5:53 AM,46.0,43.0,89,30.15,10.0,Calm,Calm,-,N/A,,Clear,0,2013-06-04 09:53:00
6:53 AM,46.9,43.0,86,30.18,10.0,Calm,Calm,-,N/A,,Clear,0,2013-06-04 10:53:00
7:53 AM,53.1,44.1,71,30.19,10.0,ENE,5.8,-,N/A,,Clear,60,2013-06-04 11:53:00
8:53 AM,57.9,45.0,62,30.19,10.0,Variable,4.6,-,N/A,,Clear,0,2013-06-04 12:53:00
9:53 AM,62.1,45.0,53,30.19,10.0,East,6.9,-,N/A,,Clear,100,2013-06-04 13:53:00
10:53 AM,64.9,45.0,48,30.19,10.0,Variable,4.6,-,N/A,,Clear,0,2013-06-04 14:53:00
11:53 AM,66.9,44.1,44,30.19,10.0,Calm,Calm,-,N/A,,Clear,0,2013-06-04 15:53:00
12:53 PM,70.0,45.0,41,30.18,10.0,Variable,5.8,-,N/A,,Clear,0,2013-06-04 16:53:00
1:53 PM,70.0,45.0,41,30.18,10.0,WSW,5.8,-,N/A,,Partly Cloudy,240,2013-06-04 17:53:00
2:53 PM,71.1,44.1,38,30.16,10.0,Variable,3.5,-,N/A,,Partly Cloudy,0,2013-06-04 18:53:00
3:53 PM,73.0,46.0,38,30.16,10.0,Calm,Calm,-,N/A,,Partly Cloudy,0,2013-06-04 19:53:00
4:53 PM,72.0,46.0,40,30.15,10.0,East,5.8,-,N/A,,Partly Cloudy,100,2013-06-04 20:53:00
5:53 PM,73.0,46.9,39,30.14,10.0,Variable,4.6,-,N/A,,Partly Cloudy,0,2013-06-04 21:53:00
6:53 PM,72.0,46.0,40,30.13,10.0,ENE,3.5,-,N/A,,Partly Cloudy,70,2013-06-04 22:53:00
7:53 PM,71.1,46.9,42,30.13,10.0,Variable,3.5,-,N/A,,Partly Cloudy,0,2013-06-04 23:53:00
8:53 PM,68.0,46.9,47,30.13,10.0,ENE,3.5,-,N/A,,Clear,70,2013-06-05 00:53:00
9:53 PM,64.9,46.9,52,30.14,10.0,ENE,3.5,-,N/A,,Clear,60,2013-06-05 01:53:00
10:53 PM,62.1,46.0,56,30.14,10.0,East,5.8,-,N/A,,Clear,100,2013-06-05 02:53:00
11:53 PM,61.0,46.0,58,30.14,10.0,East,4.6,-,N/A,,Clear,100,2013-06-05 03:53:00